Aldao, Argentina
Current Conditions -  °F | °C
As of 6:00 PM on Friday 31 Oct 2014 (Local Time) from SAAR Reporting Station
Overcast Overcast  
Wind Chill: 20°   Ceiling: 10000
Heat Index: 20°   Visibility: 6mi
Dew Point: 16°   Wind: 10mph
Humidity: 78%   Direction: 70°ENE
Pressure: 29.91"   Gusts: NA
Location:  32.72°S, 60.82°W
Report Text: SAAR 312100Z 07009KT 9999 FEW019 OVC10020/16 Q1013
Loading
Personal Weather Stations






























Interactive Weather Map
Tropical Storm Tracking
New forecast layout! Learn more

10-Day Weather Forecast

Advertisements
Track Severe Weather on mobile